Latest Weather Observations for Gatton

IDQ60801

Issued at 6:52 pm EST Tuesday 23 April 2019 (issued every 10 minutes, with the page automatically refreshed every 10 minutes)

About weather observations | Map of weather stations | Latest weather observations for QLD | Other Formats
Station Details ID: 040082 Name: UNIVERSITY OF QUEENSLAND GATTON Lat: -27.54 Lon: 152.34 Height: 89.0 m
Data from the previous 72 hours. | See also: Recent months at Gatton
Date/Time
EST
Temp
°C
App
Temp
°C
Dew
Point
°C
Rel
Hum
%
Delta-T
°C
Wind Press
QNH
hPa
Press
MSL
hPa
Rain since
9am
mm
Dir  Spd
km/h
Gust
km/h
Spd
kts
Gust
kts
23/06:30pm 21.2 19.8 15.5 70 3.4 E 17 22 9 12 - - 0.2
23/06:00pm 21.9 20.7 16.2 70 3.5 E 17 24 9 13 - - 0.2
23/05:30pm 21.9 20.9 16.6 72 3.2 E 17 24 9 13 - - 0.2
23/05:00pm 22.2 22.2 17.1 73 3.1 E 13 17 7 9 - - 0.2
23/04:30pm 22.9 22.6 17.4 71 3.4 ENE 15 22 8 12 - - 0.2
23/04:00pm 22.2 23.2 18.6 80 2.3 E 11 13 6 7 - - 0.2
23/03:30pm 21.5 22.3 18.1 81 2.1 E 11 20 6 11 - - 0.2
23/03:00pm 24.1 24.0 16.9 64 4.5 ENE 13 19 7 10 - - 0.0
23/02:30pm 24.9 24.2 16.3 59 5.3 E 15 20 8 11 - - 0.0
23/02:00pm 25.0 24.3 16.4 59 5.3 ENE 15 24 8 13 - - 0.0
23/01:30pm 24.5 23.3 16.2 60 5.1 E 17 26 9 14 - - 0.0
23/01:00pm 24.8 23.1 15.7 57 5.5 ESE 19 28 10 15 - - 0.0
23/12:30pm 25.2 23.6 16.1 57 5.6 SE 19 30 10 16 - - 0.0
23/12:00pm 24.2 22.5 15.7 59 5.2 E 19 24 10 13 - - 0.0
23/11:30am 24.2 21.9 15.7 59 5.2 ESE 22 30 12 16 - - 0.0
23/11:00am 24.0 21.6 15.5 59 5.1 ESE 22 32 12 17 - - 0.0
23/10:30am 23.6 21.6 15.6 61 4.8 ESE 20 28 11 15 - - 0.0
23/10:00am 23.1 20.8 15.7 63 4.5 ESE 22 32 12 17 - - 0.0
23/09:30am 22.9 20.4 16.2 66 4.1 ESE 24 32 13 17 - - 0.0
23/09:00am 22.9 22.4 16.9 69 3.7 ESE 15 20 8 11 - - 0.6
23/08:30am 22.5 21.8 16.5 69 3.7 SSE 15 20 8 11 - - 0.6
23/08:00am 21.4 20.1 15.9 71 3.3 SE 17 26 9 14 - - 0.6
23/07:30am 20.6 20.4 16.6 78 2.4 SE 13 19 7 10 - - 0.6
23/07:00am 19.3 20.2 16.5 84 1.7 SE 7 11 4 6 - - 0.6
23/06:30am 17.7 18.4 15.5 87 1.3 SE 6 9 3 5 - - 0.6
23/06:00am 17.2 18.7 14.7 85 1.4 CALM 0 0 0 0 - - 0.6
23/05:30am 18.3 18.8 15.6 84 1.6 SE 7 9 4 5 - - 0.6
23/05:00am 18.6 19.3 16.2 86 1.4 SE 7 9 4 5 - - 0.6
23/04:30am 18.1 19.0 16.1 88 1.2 E 6 7 3 4 - - 0.6
23/04:00am 18.5 19.7 16.8 90 1.0 E 6 7 3 4 - - 0.6
23/03:30am 18.3 20.5 16.5 89 1.1 CALM 0 6 0 3 - - 0.6
23/03:00am 18.6 19.8 16.9 90 1.0 E 6 7 3 4 - - 0.6
23/02:30am 18.6 20.7 17.1 91 0.9 SE 2 7 1 4 - - 0.6
23/02:00am 18.8 21.3 17.3 91 0.9 CALM 0 6 0 3 - - 0.6
23/01:30am 18.9 20.7 17.4 91 0.9 SE 4 7 2 4 - - 0.6
23/01:00am 19.0 21.0 17.8 93 0.7 E 4 6 2 3 - - 0.6
23/12:30am 19.0 21.6 17.5 91 0.9 CALM 0 0 0 0 - - 0.6
23/12:00am 19.1 21.7 17.6 91 0.9 CALM 0 7 0 4 - - 0.6
 
Date/Time
EST
Temp
°C
App
Temp
°C
Dew
Point
°C
Rel
Hum
%
Delta-T
°C
Wind Press
QNH
hPa
Press
MSL
hPa
Rain since
9am
mm
Dir  Spd
km/h
Gust
km/h
Spd
kts
Gust
kts
22/11:30pm 19.1 20.0 17.6 91 0.9 ESE 9 13 5 7 - - 0.2
22/11:00pm 19.5 19.6 17.5 88 1.2 SE 13 20 7 11 - - 0.2
22/10:30pm 19.7 19.5 17.7 88 1.2 SSE 15 24 8 13 - - 0.2
22/10:00pm 19.8 20.0 17.6 87 1.4 SSE 13 17 7 9 - - 0.2
22/09:30pm 19.6 22.2 17.6 88 1.2 CALM 0 7 0 4 - - 0.2
22/09:00pm 19.7 21.1 17.7 88 1.2 NE 7 11 4 6 - - 0.2
22/08:30pm 20.5 20.3 16.7 79 2.3 ENE 13 17 7 9 - - 0.0
22/08:00pm 21.5 21.3 16.7 74 2.9 E 13 15 7 8 - - 0.0
22/07:30pm 21.6 21.0 16.6 73 3.0 ESE 15 20 8 11 - - 0.0
22/07:00pm 21.8 21.0 17.0 74 2.9 E 17 22 9 12 - - 0.0
22/06:30pm 21.7 21.4 17.3 76 2.7 E 15 19 8 10 - - 0.0
22/06:00pm 21.9 21.4 16.8 73 3.1 E 15 22 8 12 - - 0.0
22/05:30pm 22.7 21.9 17.2 71 3.4 E 17 24 9 13 - - 0.0
22/05:00pm 23.1 21.8 16.9 68 3.8 E 19 24 10 13 - - 0.0
22/04:30pm 23.7 22.5 17.0 66 4.1 E 19 28 10 15 - - 0.0
22/04:00pm 23.7 21.0 16.7 65 4.3 E 26 33 14 18 - - 0.0
22/03:30pm 24.6 22.9 17.3 64 4.5 E 22 30 12 16 - - 0.0
22/03:00pm 24.4 22.3 17.1 63 4.5 E 24 32 13 17 - - 0.0
22/02:30pm 26.0 24.4 17.4 59 5.4 E 22 30 12 16 - - 0.0
22/02:00pm 26.0 24.3 16.3 55 6.0 SE 20 30 11 16 - - 0.0
22/01:30pm 25.6 23.8 15.9 55 5.9 E 20 28 11 15 - - 0.0
22/01:00pm 26.0 23.9 16.3 55 6.0 E 22 30 12 16 - - 0.0
22/12:30pm 26.5 24.7 17.0 56 5.9 E 22 30 12 16 - - 0.0
22/12:00pm 25.5 23.2 15.8 55 5.9 E 22 28 12 15 - - 0.0
22/11:30am 25.7 23.4 15.7 54 6.1 E 22 30 12 16 - - 0.0
22/11:00am 24.5 22.6 15.1 55 5.7 ESE 19 26 10 14 - - 0.0
22/10:30am 24.8 22.3 15.1 54 5.8 ESE 22 33 12 18 - - 0.0
22/10:00am 24.0 21.7 15.8 60 5.0 ESE 22 32 12 17 - - 0.0
22/09:30am 23.0 21.2 16.1 65 4.2 ESE 20 30 11 16 - - 0.0
22/09:00am 22.3 20.8 16.3 69 3.6 ESE 19 24 10 13 - - 0.2
22/08:30am 21.2 20.4 16.0 72 3.1 ESE 15 19 8 10 - - 0.2
22/08:00am 20.5 20.4 15.9 75 2.8 ESE 11 17 6 9 - - 0.2
22/07:30am 20.0 20.7 16.0 78 2.4 E 7 11 4 6 - - 0.2
22/07:00am 18.8 19.7 16.0 84 1.7 ENE 6 7 3 4 - - 0.2
22/06:30am 17.8 18.1 15.1 84 1.6 ESE 7 9 4 5 - - 0.2
22/06:00am 17.8 18.4 15.4 86 1.4 NE 6 9 3 5 - - 0.2
22/05:30am 18.0 19.0 16.3 90 1.0 ENE 6 7 3 4 - - 0.2
22/05:00am 17.0 17.6 15.3 90 1.0 E 6 7 3 4 - - 0.2
22/04:30am 17.6 18.9 16.1 91 0.9 NE 4 7 2 4 - - 0.2
22/04:00am 17.7 18.6 16.6 93 0.7 N 7 9 4 5 - - 0.2
22/03:30am 17.5 19.2 16.2 92 0.8 SW 2 7 1 4 - - 0.2
22/03:00am 17.8 18.8 16.3 91 0.9 SE 6 11 3 6 - - 0.2
22/02:30am 18.0 18.0 16.2 89 1.1 SSE 11 17 6 9 - - 0.0
22/02:00am 17.4 18.5 16.6 95 0.5 ENE 6 7 3 4 - - 0.0
22/01:30am 16.6 18.5 15.8 95 0.5 CALM 0 0 0 0 - - 0.0
22/01:00am 16.0 17.6 15.0 94 0.6 CALM 0 0 0 0 - - 0.0
22/12:30am 15.1 16.4 14.0 93 0.6 CALM 0 0 0 0 - - 0.0
22/12:00am 15.5 16.9 14.4 93 0.6 CALM 0 0 0 0 - - 0.0
 
Date/Time
EST
Temp
°C
App
Temp
°C
Dew
Point
°C
Rel
Hum
%
Delta-T
°C
Wind Press
QNH
hPa
Press
MSL
hPa
Rain since
9am
mm
Dir  Spd
km/h
Gust
km/h
Spd
kts
Gust
kts
21/11:30pm 15.4 16.6 13.8 90 0.9 CALM 0 0 0 0 - - 0.0
21/11:00pm 16.5 18.2 15.2 92 0.8 CALM 0 0 0 0 - - 0.0
21/10:30pm 16.6 17.5 15.1 91 0.9 WSW 4 6 2 3 - - 0.0
21/10:00pm 17.3 19.1 15.5 89 1.1 CALM 0 0 0 0 - - 0.0
21/09:30pm 18.4 20.4 16.0 86 1.4 CALM 0 0 0 0 - - 0.0
21/09:00pm 19.5 21.5 16.9 85 1.6 NE 2 9 1 5 - - 0.0
21/08:30pm 19.5 20.4 16.7 84 1.7 NNE 7 11 4 6 - - 0.0
21/08:00pm 19.9 20.2 17.1 84 1.7 NE 11 17 6 9 - - 0.0
21/07:30pm 20.0 19.6 17.2 84 1.7 NE 15 20 8 11 - - 0.0
21/07:00pm 20.5 19.7 17.1 81 2.1 ENE 17 24 9 13 - - 0.0
21/06:30pm 22.6 20.7 15.2 63 4.4 E 19 26 10 14 - - 0.0
21/06:00pm 22.9 21.7 15.0 61 4.7 E 15 20 8 11 - - 0.0
21/05:30pm 23.1 21.4 14.7 59 5.0 E 17 24 9 13 - - 0.0
21/05:00pm 23.6 21.3 14.6 57 5.4 E 20 26 11 14 - - 0.0
21/04:30pm 24.7 21.7 14.8 54 5.9 E 24 35 13 19 - - 0.0
21/04:00pm 25.3 21.3 15.3 54 6.1 E 30 41 16 22 - - 0.0
21/03:30pm 25.5 21.6 16.4 57 5.6 E 32 37 17 20 - - 0.0
21/03:00pm 26.0 23.4 16.8 57 5.7 E 26 37 14 20 - - 0.0
21/02:30pm 25.7 23.0 16.5 56 5.7 E 26 37 14 20 - - 0.0
21/02:00pm 26.0 24.8 17.4 59 5.4 ESE 20 30 11 16 - - 0.0
21/01:30pm 25.0 23.0 16.4 59 5.3 ESE 22 32 12 17 - - 0.0
21/01:00pm 26.2 24.3 17.6 59 5.4 ESE 24 33 13 18 - - 0.0
21/12:30pm 26.0 24.8 17.4 59 5.4 SE 20 32 11 17 - - 0.0
21/12:00pm 26.0 24.8 17.6 60 5.3 ESE 20 30 11 16 - - 0.0
21/11:30am 25.1 23.4 16.3 58 5.4 ESE 20 28 11 15 - - 0.0
21/11:00am 25.5 23.9 17.4 61 5.1 E 22 30 12 16 - - 0.0
21/10:30am 24.7 23.6 17.4 64 4.6 SE 19 28 10 15 - - 0.0
21/10:00am 23.6 22.0 16.6 65 4.3 SE 20 30 11 16 - - 0.0
21/09:30am 23.9 23.1 17.9 69 3.8 SE 19 28 10 15 - - 0.0
21/09:00am 22.8 21.8 16.6 68 3.8 SE 17 26 9 14 - - 8.2
21/08:30am 22.4 21.7 17.3 73 3.2 SE 17 22 9 12 - - 8.2
21/08:00am 21.7 22.2 17.5 77 2.6 SSE 11 17 6 9 - - 8.2
21/07:30am 20.8 21.5 17.0 79 2.3 SE 9 13 5 7 - - 8.2
21/07:00am 20.0 20.3 17.0 83 1.8 SSE 11 15 6 8 - - 8.2
21/06:30am 19.2 20.3 17.2 88 1.2 SE 7 11 4 6 - - 8.2
21/06:00am 19.7 20.3 17.7 88 1.2 SE 11 17 6 9 - - 8.2
21/05:30am 19.5 20.5 17.8 90 1.0 SE 9 15 5 8 - - 8.2
21/05:00am 19.5 20.2 18.0 91 0.9 SE 11 19 6 10 - - 8.2
21/04:30am 19.6 19.9 17.9 90 1.1 SE 13 17 7 9 - - 8.2
21/04:00am 19.7 20.4 18.0 90 1.1 SSE 11 19 6 10 - - 8.2
21/03:30am 19.8 21.0 18.3 91 0.9 SE 9 13 5 7 - - 8.2
21/03:00am 19.7 21.2 18.0 90 1.1 SE 7 11 4 6 - - 8.2
21/02:30am 19.7 20.0 18.0 90 1.1 ESE 13 20 7 11 - - 8.2
21/02:00am 19.6 19.3 18.3 92 0.8 SSE 17 24 9 13 - - 8.2
21/01:30am 19.6 20.1 18.3 92 0.8 SE 13 19 7 10 - - 8.0
21/01:00am 19.8 20.7 18.3 91 0.9 SE 11 15 6 8 - - 8.0
21/12:30am 19.2 20.7 17.7 91 0.9 SE 6 7 3 4 - - 7.8
21/12:00am 19.5 21.1 18.2 92 0.8 SSE 7 11 4 6 - - 7.8
 
Date/Time
EST
Temp
°C
App
Temp
°C
Dew
Point
°C
Rel
Hum
%
Delta-T
°C
Wind Press
QNH
hPa
Press
MSL
hPa
Rain since
9am
mm
Dir  Spd
km/h
Gust
km/h
Spd
kts
Gust
kts
20/11:30pm 19.5 20.3 18.2 92 0.8 SSE 11 17 6 9 - - 7.8
20/11:00pm 19.6 20.4 18.1 91 0.9 SSE 11 17 6 9 - - 7.8
20/10:30pm 19.6 20.7 17.9 90 1.1 SE 9 13 5 7 - - 7.8
20/10:00pm 19.8 20.8 17.8 88 1.2 SE 9 11 5 6 - - 7.8
20/09:30pm 20.1 20.8 18.0 88 1.3 SSE 11 17 6 9 - - 7.6
20/09:00pm 20.4 21.4 18.7 90 1.1 SE 11 15 6 8 - - 7.6
20/08:30pm 20.5 21.2 18.8 90 1.1 ESE 13 19 7 10 - - 7.6
20/08:00pm 20.4 21.7 19.2 93 0.8 SE 11 15 6 8 - - 7.6
20/07:30pm 21.2 23.2 18.8 86 1.5 ESE 6 9 3 5 - - 6.2
20/07:00pm 21.5 22.4 18.3 82 2.0 E 11 15 6 8 - - 6.0

Other formats

Comma delimited format used in spreadsheet applications
http://www.bom.gov.au/fwo/IDQ60801/IDQ60801.94562.axf

JavaScript Object Notation format (JSON) in row-major order
http://www.bom.gov.au/fwo/IDQ60801/IDQ60801.94562.json

Data quality

Most of these data are generated automatically and are frequently updated. Quality checks on data are not normally performed. It is possible for incorrect values to appear. Refer to information at About Latest Weather Observations and please check the disclaimer before using these data.